5WN8 weather

Knight Sky Airport
Wausau, Wisconsin, United States

Public forecast

Using degrees Fahrenheit for public forecast. Weather courtesy of forecast.io.

Closest aviation weather report (METAR) to Knight Sky Airport

Closest report is Wausau Downtown Airport, 11.5 nm (21.3 km) WSW. Retrieved 2020/02/23 13:54 UTC (23 minutes ago):

KAUW 231354Z AUTO 21007KT 5SM BR FEW010 M03/M04 A2978 RMK AO2 SLP102 T10331039

Closest aviation forecast (TAF) to Knight Sky Airport

Closest forecast is Wausau Downtown Airport, 11.5 nm (21.3 km) WSW. Retrieved 2020/02/23 12:33 UTC (2 hours ago):

TAF KAUW 231130Z 2312/2412 22006KT P6SM SCT012 TEMPO 2312/2314 4SM BR FM231500 25008KT P6SM SCT250 FM231700 27011G18KT P6SM SCT250 WS016/29035KT FM240000 29009G15KT P6SM SCT250 FM240200 29006KT P6SM BKN250 FM241000 33005KT P6SM SCT012